createdAt,value
2022-12-18T00:00:59.826Z,-8.93
2022-12-18T00:03:27.306Z,-8.91
2022-12-18T00:05:54.056Z,-8.88
2022-12-18T00:08:20.711Z,-9.00
2022-12-18T00:10:47.346Z,-8.94
2022-12-18T00:13:13.974Z,-8.99
2022-12-18T00:15:40.930Z,-8.81
2022-12-18T00:18:07.627Z,-8.88
2022-12-18T00:20:39.202Z,-8.92
2022-12-18T00:23:06.726Z,-8.88
2022-12-18T00:25:37.110Z,-8.91
2022-12-18T00:28:04.684Z,-8.80
2022-12-18T00:30:31.392Z,-8.85
2022-12-18T00:32:58.707Z,-8.75
2022-12-18T00:35:25.351Z,-8.80
2022-12-18T00:37:52.010Z,-8.91
2022-12-18T00:40:18.649Z,-9.00
2022-12-18T00:42:57.120Z,-8.98
2022-12-18T00:45:30.642Z,-8.95
2022-12-18T00:47:58.209Z,-8.90
2022-12-18T00:50:26.701Z,-8.76
2022-12-18T00:52:53.559Z,-8.95
2022-12-18T00:55:20.159Z,-8.90
2022-12-18T00:57:46.786Z,-8.93
2022-12-18T01:00:15.476Z,-9.01
2022-12-18T01:02:42.649Z,-9.04
2022-12-18T01:05:10.899Z,-9.01
2022-12-18T01:07:37.716Z,-9.18
2022-12-18T01:10:06.508Z,-9.11
2022-12-18T01:12:34.147Z,-9.14
2022-12-18T01:15:00.810Z,-9.16
2022-12-18T01:17:27.559Z,-9.24
2022-12-18T01:19:54.270Z,-9.09
2022-12-18T01:22:20.902Z,-9.02
2022-12-18T01:24:47.602Z,-8.99
2022-12-18T01:27:14.510Z,-9.11
2022-12-18T01:29:41.295Z,-9.03
2022-12-18T01:32:09.740Z,-8.85
2022-12-18T01:34:37.514Z,-8.67
2022-12-18T01:37:05.696Z,-8.68
2022-12-18T01:39:33.249Z,-8.70
2022-12-18T01:42:04.585Z,-8.53
2022-12-18T01:45:17.901Z,-8.61
2022-12-18T01:47:49.781Z,-8.60
2022-12-18T01:50:22.166Z,-8.73
2022-12-18T01:52:52.790Z,-8.74
2022-12-18T01:55:23.092Z,-8.75
2022-12-18T01:57:53.459Z,-8.92
2022-12-18T02:00:22.536Z,-8.90
2022-12-18T02:02:49.629Z,-8.98
2022-12-18T02:05:23.611Z,-9.02
2022-12-18T02:08:05.376Z,-9.01
2022-12-18T02:10:36.744Z,-9.00
2022-12-18T02:13:23.500Z,-8.94
2022-12-18T02:16:00.239Z,-8.77
2022-12-18T02:18:34.646Z,-8.65
2022-12-18T02:21:13.431Z,-8.85
2022-12-18T02:24:06.614Z,-8.73
2022-12-18T02:26:47.640Z,-8.71
2022-12-18T02:29:19.388Z,-8.68
2022-12-18T02:31:53.808Z,-8.73
2022-12-18T02:34:24.275Z,-8.70
2022-12-18T02:36:52.082Z,-8.67
2022-12-18T02:39:22.076Z,-8.65
2022-12-18T02:41:49.980Z,-8.60
2022-12-18T02:44:16.747Z,-8.58
2022-12-18T02:46:54.357Z,-8.47
2022-12-18T02:49:40.703Z,-8.46
2022-12-18T02:52:19.510Z,-8.46
2022-12-18T02:55:00.883Z,-8.41
2022-12-18T02:57:36.746Z,-8.41
2022-12-18T03:00:19.494Z,-8.38
2022-12-18T03:02:59.886Z,-8.36
2022-12-18T03:05:39.587Z,-8.36
2022-12-18T03:08:15.263Z,-8.32
2022-12-18T03:11:05.163Z,-8.26
2022-12-18T03:13:37.147Z,-8.18
2022-12-18T03:16:08.622Z,-8.18
2022-12-18T03:18:47.445Z,-8.22
2022-12-18T03:21:17.585Z,-8.19
2022-12-18T03:23:49.054Z,-8.18
2022-12-18T03:26:20.477Z,-8.19
2022-12-18T03:28:52.220Z,-8.14
2022-12-18T03:31:22.836Z,-8.07
2022-12-18T03:34:01.943Z,-8.14
2022-12-18T03:36:28.891Z,-8.09
2022-12-18T03:38:55.530Z,-8.06
2022-12-18T03:41:40.875Z,-8.04
2022-12-18T03:44:32.365Z,-7.99
2022-12-18T03:47:08.992Z,-8.00
2022-12-18T03:49:38.657Z,-8.00
2022-12-18T03:52:18.518Z,-8.00
2022-12-18T03:54:46.547Z,-7.98
2022-12-18T03:57:19.352Z,-8.08
2022-12-18T03:59:50.273Z,-7.94
2022-12-18T04:02:18.310Z,-7.93
2022-12-18T04:04:48.717Z,-7.86
2022-12-18T04:07:16.766Z,-7.89
2022-12-18T04:09:46.553Z,-7.98
2022-12-18T04:12:13.231Z,-7.87
2022-12-18T04:14:40.790Z,-7.78
2022-12-18T04:17:07.629Z,-7.98
2022-12-18T04:19:34.301Z,-7.95
2022-12-18T04:22:00.917Z,-7.91
2022-12-18T04:24:27.900Z,-7.91
2022-12-18T04:26:54.952Z,-7.93
2022-12-18T04:29:21.550Z,-7.82
2022-12-18T04:31:48.139Z,-7.78
2022-12-18T04:34:14.928Z,-7.76
2022-12-18T04:36:41.714Z,-7.85
2022-12-18T04:39:08.322Z,-7.81
2022-12-18T04:41:34.908Z,-7.70
2022-12-18T04:44:01.596Z,-7.68
2022-12-18T04:46:28.276Z,-7.76
2022-12-18T04:48:55.055Z,-7.82
2022-12-18T04:51:26.294Z,-7.65
2022-12-18T04:53:53.926Z,-7.79
2022-12-18T04:56:21.492Z,-7.77
2022-12-18T04:58:48.207Z,-7.70
2022-12-18T05:01:17.440Z,-7.73
2022-12-18T05:03:44.586Z,-7.66
2022-12-18T05:06:11.941Z,-7.67
2022-12-18T05:08:38.610Z,-7.69
2022-12-18T05:11:16.684Z,-7.65
2022-12-18T05:13:45.362Z,-7.63
2022-12-18T05:16:13.216Z,-7.72
2022-12-18T05:18:39.898Z,-7.73
2022-12-18T05:21:06.688Z,-7.69
2022-12-18T05:23:33.323Z,-7.70
2022-12-18T05:26:02.254Z,-7.79
2022-12-18T05:28:30.919Z,-7.74
2022-12-18T05:31:00.113Z,-7.71
2022-12-18T05:33:29.422Z,-7.73
2022-12-18T05:35:58.512Z,-7.71
2022-12-18T05:38:27.686Z,-7.74
2022-12-18T05:40:55.105Z,-7.65
2022-12-18T05:43:22.917Z,-7.75
2022-12-18T05:45:50.595Z,-7.69
2022-12-18T05:48:17.984Z,-7.64
2022-12-18T05:50:46.923Z,-7.71
2022-12-18T05:53:15.404Z,-7.67
2022-12-18T05:55:43.318Z,-7.71
2022-12-18T05:58:11.337Z,-7.83
2022-12-18T06:00:42.630Z,-7.75
2022-12-18T06:03:10.603Z,-7.68
2022-12-18T06:05:42.387Z,-7.75
2022-12-18T06:08:09.260Z,-7.68
2022-12-18T06:10:36.005Z,-7.65
2022-12-18T06:13:02.862Z,-7.73
2022-12-18T06:15:29.476Z,-7.69
2022-12-18T06:17:56.088Z,-7.67
2022-12-18T06:20:23.200Z,-7.57
2022-12-18T06:22:50.420Z,-7.57
2022-12-18T06:25:17.115Z,-7.60
2022-12-18T06:27:44.207Z,-7.62
2022-12-18T06:30:12.062Z,-7.54
2022-12-18T06:32:39.354Z,-7.59
2022-12-18T06:35:06.504Z,-7.68
2022-12-18T06:37:33.129Z,-7.53
2022-12-18T06:40:00.105Z,-7.55
2022-12-18T06:42:26.748Z,-7.55
2022-12-18T06:44:53.366Z,-7.53
2022-12-18T06:47:20.050Z,-7.41
2022-12-18T06:49:46.746Z,-7.47
2022-12-18T06:52:13.330Z,-7.44
2022-12-18T06:54:40.124Z,-7.50
2022-12-18T06:57:06.748Z,-7.46
2022-12-18T06:59:33.446Z,-7.51
2022-12-18T07:02:00.179Z,-7.35
2022-12-18T07:04:31.623Z,-7.31
2022-12-18T07:06:58.480Z,-7.28
2022-12-18T07:09:25.535Z,-7.26
2022-12-18T07:11:52.873Z,-7.35
2022-12-18T07:14:19.608Z,-7.38
2022-12-18T07:16:46.372Z,-7.36
2022-12-18T07:19:13.009Z,-7.23
2022-12-18T07:21:39.790Z,-7.27
2022-12-18T07:24:06.978Z,-7.28
2022-12-18T07:26:33.841Z,-7.17
2022-12-18T07:29:00.631Z,-7.16
2022-12-18T07:31:27.948Z,-7.09
2022-12-18T07:33:56.157Z,-7.04
2022-12-18T07:36:22.816Z,-6.98
2022-12-18T07:38:50.859Z,-6.90
2022-12-18T07:41:17.885Z,-7.06
2022-12-18T07:43:44.898Z,-6.87
2022-12-18T07:46:14.649Z,-6.93
2022-12-18T07:48:49.779Z,-6.90
2022-12-18T07:51:17.898Z,-7.05
2022-12-18T07:53:45.239Z,-6.96
2022-12-18T07:56:30.485Z,-6.99
2022-12-18T07:58:59.213Z,-6.89
2022-12-18T08:01:26.433Z,-6.85
2022-12-18T08:03:53.228Z,-7.01
2022-12-18T08:06:22.478Z,-6.85
2022-12-18T08:08:55.309Z,-6.67
2022-12-18T08:11:23.230Z,-6.68
2022-12-18T08:13:49.951Z,-6.67
2022-12-18T08:16:16.768Z,-6.76
2022-12-18T08:18:43.422Z,-6.60
2022-12-18T08:21:30.676Z,-6.40
2022-12-18T08:23:59.620Z,-6.48
2022-12-18T08:26:28.274Z,-6.57
2022-12-18T08:28:56.581Z,-6.52
2022-12-18T08:31:23.919Z,-6.38
2022-12-18T08:33:53.247Z,-6.29
2022-12-18T08:36:21.137Z,-6.20
2022-12-18T08:38:48.111Z,-6.27
2022-12-18T08:41:16.387Z,-6.20
2022-12-18T08:44:01.742Z,-6.23
2022-12-18T08:46:35.125Z,-6.01
2022-12-18T08:49:01.941Z,-6.07
2022-12-18T08:51:29.559Z,-6.05
2022-12-18T08:53:56.277Z,-6.03
2022-12-18T08:56:22.958Z,-5.94
2022-12-18T08:58:53.197Z,-5.77
2022-12-18T09:01:20.391Z,-6.14
2022-12-18T09:03:47.204Z,-6.12
2022-12-18T09:06:18.936Z,-5.92
2022-12-18T09:08:45.699Z,-5.76
2022-12-18T09:11:39.179Z,-5.76
2022-12-18T09:14:05.905Z,-5.60
2022-12-18T09:16:35.827Z,-5.51
2022-12-18T09:19:05.314Z,-5.47
2022-12-18T09:21:36.952Z,-5.40
2022-12-18T09:24:04.033Z,-5.36
2022-12-18T09:26:31.802Z,-5.54
2022-12-18T09:28:58.552Z,-5.28
2022-12-18T09:31:25.763Z,-5.35
2022-12-18T09:33:52.552Z,-5.31
2022-12-18T09:36:19.882Z,-5.36
2022-12-18T09:38:46.588Z,-5.28
2022-12-18T09:41:16.496Z,-5.34
2022-12-18T09:43:57.222Z,-5.37
2022-12-18T09:46:37.617Z,-5.22
2022-12-18T09:49:10.933Z,-4.93
2022-12-18T09:51:43.175Z,-4.84
2022-12-18T09:54:22.144Z,-5.01
2022-12-18T09:56:49.122Z,-5.11
2022-12-18T09:59:35.119Z,-5.12
2022-12-18T10:02:17.805Z,-4.85
2022-12-18T10:04:48.883Z,-4.98
2022-12-18T10:07:15.484Z,-4.93
2022-12-18T10:09:59.248Z,-4.97
2022-12-18T10:12:39.417Z,-4.78
2022-12-18T10:15:34.921Z,-4.76
2022-12-18T10:18:32.199Z,-4.66
2022-12-18T10:21:12.785Z,-4.68
2022-12-18T10:23:48.624Z,-4.71
2022-12-18T10:26:15.850Z,-4.57
2022-12-18T10:28:43.659Z,-4.54
2022-12-18T10:31:25.190Z,-4.41
2022-12-18T10:33:54.683Z,-4.33
2022-12-18T10:36:22.300Z,-4.18
2022-12-18T10:38:50.804Z,-4.24
2022-12-18T10:41:21.994Z,-4.40
2022-12-18T10:43:49.156Z,-4.41
2022-12-18T10:46:20.804Z,-4.27
2022-12-18T10:48:47.470Z,-4.32
2022-12-18T10:51:21.620Z,-4.31
2022-12-18T10:53:55.206Z,-4.26
2022-12-18T10:56:22.486Z,-3.89
2022-12-18T10:59:12.865Z,-4.07
2022-12-18T11:01:56.305Z,-4.13
2022-12-18T11:04:28.128Z,-4.00
2022-12-18T11:06:59.518Z,-3.93
2022-12-18T11:09:33.438Z,-3.44
2022-12-18T11:12:07.180Z,-3.67
2022-12-18T11:14:36.541Z,-3.49
2022-12-18T11:17:24.849Z,-3.97
2022-12-18T11:19:59.010Z,-3.67
2022-12-18T11:22:29.619Z,-3.68
2022-12-18T11:25:30.865Z,-3.86
2022-12-18T11:27:55.278Z,-4.01
2022-12-18T11:30:21.911Z,-3.96
2022-12-18T11:32:53.238Z,-3.76
2022-12-18T11:35:59.323Z,-3.77
2022-12-18T11:38:26.336Z,-3.73
2022-12-18T11:41:00.014Z,-3.55
2022-12-18T11:43:34.893Z,-3.54
2022-12-18T11:46:19.294Z,-3.70
2022-12-18T11:48:53.263Z,-3.45
2022-12-18T11:51:28.729Z,-3.45
2022-12-18T11:53:55.408Z,-3.40
2022-12-18T11:56:36.072Z,-3.65
2022-12-18T11:59:14.883Z,-3.26
2022-12-18T12:01:55.625Z,-3.38
2022-12-18T12:04:34.257Z,-2.99
2022-12-18T12:07:17.440Z,-2.92
2022-12-18T12:09:54.318Z,-3.24
2022-12-18T12:12:23.528Z,-3.33
2022-12-18T12:15:12.950Z,-3.05
2022-12-18T12:17:55.477Z,-3.02
2022-12-18T12:21:16.286Z,-3.15
2022-12-18T12:24:12.523Z,-2.84
2022-12-18T12:27:16.466Z,-3.05
2022-12-18T12:29:49.752Z,-3.17
2022-12-18T12:32:16.516Z,-3.25
2022-12-18T12:35:00.203Z,-3.18
2022-12-18T12:38:10.655Z,-3.54
2022-12-18T12:40:56.662Z,-3.71
2022-12-18T12:43:47.679Z,-3.31
2022-12-18T12:49:18.395Z,-3.40
2022-12-18T12:51:50.618Z,-3.28
2022-12-18T12:54:22.545Z,-3.34
2022-12-18T12:57:13.182Z,-3.58
2022-12-18T12:59:59.461Z,-3.53
2022-12-18T13:02:36.996Z,-3.35
2022-12-18T13:05:22.924Z,-3.63
2022-12-18T13:07:58.540Z,-3.64
2022-12-18T13:10:27.937Z,-3.39
2022-12-18T13:12:58.248Z,-3.53
2022-12-18T13:13:43.500Z,-3.23
2022-12-18T13:15:39.802Z,-3.71
2022-12-18T13:18:25.052Z,-3.71
2022-12-18T13:23:49.813Z,-3.68
2022-12-18T13:26:26.333Z,-3.63
2022-12-18T13:28:57.184Z,-3.75
2022-12-18T13:31:42.348Z,-3.89
2022-12-18T13:34:26.983Z,-3.91
2022-12-18T13:36:57.052Z,-3.72
2022-12-18T13:39:34.814Z,-3.68
2022-12-18T13:42:08.572Z,-3.91
2022-12-18T13:44:41.633Z,-3.97
2022-12-18T13:47:34.466Z,-4.07
2022-12-18T13:50:10.073Z,-3.97
2022-12-18T13:52:40.286Z,-4.01
2022-12-18T13:55:16.619Z,-3.98
2022-12-18T13:57:43.358Z,-4.19
2022-12-18T14:00:23.047Z,-4.12
2022-12-18T14:02:51.416Z,-4.12
2022-12-18T14:05:26.649Z,-4.22
2022-12-18T14:07:54.780Z,-4.22
2022-12-18T14:13:12.533Z,-4.06
2022-12-18T14:15:45.301Z,-4.02
2022-12-18T14:18:27.610Z,-4.18
2022-12-18T14:21:00.403Z,-4.23
2022-12-18T14:23:39.734Z,-4.32
2022-12-18T14:26:28.946Z,-4.35
2022-12-18T14:28:56.934Z,-4.34
2022-12-18T14:31:26.369Z,-4.16
2022-12-18T14:33:54.336Z,-4.28
2022-12-18T14:36:30.382Z,-4.34
2022-12-18T14:38:59.343Z,-4.38
2022-12-18T14:41:27.025Z,-4.36
2022-12-18T14:43:55.092Z,-4.48
2022-12-18T14:46:33.928Z,-4.55
2022-12-18T14:49:30.703Z,-4.58
2022-12-18T14:51:59.931Z,-4.64
2022-12-18T14:54:28.423Z,-4.69
2022-12-18T14:57:04.875Z,-4.72
2022-12-18T14:59:33.021Z,-4.79
2022-12-18T15:02:12.177Z,-4.71
2022-12-18T15:04:44.671Z,-4.63
2022-12-18T15:07:19.251Z,-4.64
2022-12-18T15:10:11.969Z,-4.76
2022-12-18T15:12:41.995Z,-4.75
2022-12-18T15:15:33.706Z,-4.91
2022-12-18T15:18:12.725Z,-4.78
2022-12-18T15:20:44.438Z,-4.88
2022-12-18T15:23:39.314Z,-5.08
2022-12-18T15:26:10.066Z,-5.09
2022-12-18T15:28:59.535Z,-5.19
2022-12-18T15:31:36.326Z,-5.18
2022-12-18T15:34:18.983Z,-5.17
2022-12-18T15:36:45.742Z,-5.28
2022-12-18T15:39:14.075Z,-5.36
2022-12-18T15:41:41.206Z,-5.31
2022-12-18T15:44:24.025Z,-5.29
2022-12-18T15:46:50.748Z,-5.33
2022-12-18T15:49:17.496Z,-5.51
2022-12-18T15:51:44.493Z,-5.51
2022-12-18T15:54:17.069Z,-5.57
2022-12-18T15:57:02.348Z,-5.56
2022-12-18T15:59:29.471Z,-5.63
2022-12-18T16:01:57.602Z,-5.54
2022-12-18T16:04:25.715Z,-5.57
2022-12-18T16:07:14.477Z,-5.64
2022-12-18T16:09:42.846Z,-5.57
2022-12-18T16:12:19.109Z,-5.39
2022-12-18T16:14:46.176Z,-5.43
2022-12-18T16:17:14.657Z,-5.48
2022-12-18T16:19:41.593Z,-5.50
2022-12-18T16:22:20.986Z,-5.36
2022-12-18T16:24:48.070Z,-5.36
2022-12-18T16:27:14.831Z,-5.33
2022-12-18T16:29:41.510Z,-5.35
2022-12-18T16:32:12.446Z,-5.34
2022-12-18T16:34:39.075Z,-5.35
2022-12-18T16:37:08.291Z,-5.25
2022-12-18T16:39:36.097Z,-5.33
2022-12-18T16:42:15.343Z,-5.39
2022-12-18T16:44:42.115Z,-5.30
2022-12-18T16:47:09.283Z,-5.31
2022-12-18T16:49:38.036Z,-5.23
2022-12-18T16:52:08.207Z,-5.29
2022-12-18T16:54:36.677Z,-5.32
2022-12-18T16:57:05.469Z,-5.44
2022-12-18T16:59:32.272Z,-5.48
2022-12-18T17:01:59.145Z,-5.34
2022-12-18T17:04:25.909Z,-5.36
2022-12-18T17:06:53.817Z,-5.33
2022-12-18T17:09:30.582Z,-5.29
2022-12-18T17:11:57.169Z,-5.32
2022-12-18T17:14:24.955Z,-5.30
2022-12-18T17:17:19.095Z,-5.33
2022-12-18T17:19:39.465Z,-5.28
2022-12-18T17:22:08.001Z,-5.28
2022-12-18T17:24:35.500Z,-5.36
2022-12-18T17:27:03.497Z,-5.42
2022-12-18T17:29:30.285Z,-5.41
2022-12-18T17:31:57.279Z,-5.37
2022-12-18T17:34:25.453Z,-5.43
2022-12-18T17:36:52.209Z,-5.46
2022-12-18T17:39:20.413Z,-5.44
2022-12-18T17:41:48.314Z,-5.42
2022-12-18T17:44:16.578Z,-5.43
2022-12-18T17:46:43.777Z,-5.46
2022-12-18T17:49:11.112Z,-5.52
2022-12-18T17:51:37.980Z,-5.41
2022-12-18T17:54:05.438Z,-5.35
2022-12-18T17:56:32.963Z,-5.43
2022-12-18T17:58:59.912Z,-5.46
2022-12-18T18:01:27.219Z,-5.48
2022-12-18T18:03:56.333Z,-5.43
2022-12-18T18:06:23.916Z,-5.46
2022-12-18T18:08:51.124Z,-5.45
2022-12-18T18:11:38.227Z,-5.44
2022-12-18T18:14:08.490Z,-5.48
2022-12-18T18:16:41.502Z,-5.32
2022-12-18T18:19:14.922Z,-5.29
2022-12-18T18:21:43.865Z,-5.29
2022-12-18T18:24:12.878Z,-5.43
2022-12-18T18:26:41.500Z,-5.36
2022-12-18T18:29:09.161Z,-5.32
2022-12-18T18:31:40.692Z,-5.27
2022-12-18T18:34:08.651Z,-5.41
2022-12-18T18:36:35.473Z,-5.30
2022-12-18T18:39:02.290Z,-5.26
2022-12-18T18:41:30.594Z,-5.25
2022-12-18T18:43:58.479Z,-5.35
2022-12-18T18:46:26.039Z,-5.36
2022-12-18T18:48:53.368Z,-5.42
2022-12-18T18:51:21.431Z,-5.35
2022-12-18T18:53:50.459Z,-5.32
2022-12-18T18:57:04.131Z,-5.30
2022-12-18T18:59:09.584Z,-5.31
2022-12-18T19:01:36.354Z,-5.37
2022-12-18T19:04:03.642Z,-5.37
2022-12-18T19:06:30.458Z,-5.33
2022-12-18T19:08:58.649Z,-5.24
2022-12-18T19:11:44.546Z,-5.30
2022-12-18T19:14:13.999Z,-5.32
2022-12-18T19:16:41.727Z,-5.31
2022-12-18T19:19:08.856Z,-5.38
2022-12-18T19:21:35.916Z,-5.41
2022-12-18T19:24:02.907Z,-5.51
2022-12-18T19:26:29.817Z,-5.38
2022-12-18T19:29:04.378Z,-5.42
2022-12-18T19:31:35.467Z,-5.35
2022-12-18T19:34:04.932Z,-5.30
2022-12-18T19:36:32.488Z,-5.18
2022-12-18T19:39:01.383Z,-5.15
2022-12-18T19:41:32.878Z,-5.18
2022-12-18T19:44:00.056Z,-5.20
2022-12-18T19:46:28.938Z,-5.15
2022-12-18T19:48:55.632Z,-5.15
2022-12-18T19:51:27.817Z,-5.20
2022-12-18T19:53:58.887Z,-5.15
2022-12-18T19:56:30.386Z,-5.16
2022-12-18T19:58:57.793Z,-5.30
2022-12-18T20:01:25.827Z,-5.23
2022-12-18T20:03:54.534Z,-5.29
2022-12-18T20:06:27.192Z,-5.32
2022-12-18T20:08:57.626Z,-5.18
2022-12-18T20:11:28.867Z,-5.26
2022-12-18T20:13:55.733Z,-5.35
2022-12-18T20:16:22.617Z,-5.25
2022-12-18T20:18:49.515Z,-5.26
2022-12-18T20:21:16.273Z,-5.32
2022-12-18T20:23:43.627Z,-5.34
2022-12-18T20:26:11.195Z,-5.23
2022-12-18T20:28:40.440Z,-5.23
2022-12-18T20:31:10.538Z,-5.33
2022-12-18T20:33:41.436Z,-5.29
2022-12-18T20:36:13.276Z,-5.19
2022-12-18T20:38:41.247Z,-5.28
2022-12-18T20:41:10.892Z,-5.26
2022-12-18T20:43:38.959Z,-5.04
2022-12-18T20:46:08.861Z,-5.17
2022-12-18T20:48:36.217Z,-5.17
2022-12-18T20:51:06.034Z,-5.21
2022-12-18T20:53:33.936Z,-5.13
2022-12-18T20:56:02.195Z,-5.05
2022-12-18T20:58:28.994Z,-5.08
2022-12-18T21:01:10.818Z,-5.08
2022-12-18T21:03:40.072Z,-5.15
2022-12-18T21:06:07.842Z,-5.18
2022-12-18T21:08:34.857Z,-5.13
2022-12-18T21:11:36.040Z,-4.92
2022-12-18T21:14:04.569Z,-4.97
2022-12-18T21:16:31.837Z,-4.92
2022-12-18T21:18:58.806Z,-4.93
2022-12-18T21:21:26.708Z,-5.01
2022-12-18T21:23:54.124Z,-4.93
2022-12-18T21:26:23.298Z,-4.95
2022-12-18T21:28:58.061Z,-4.98
2022-12-18T21:31:28.076Z,-5.04
2022-12-18T21:34:01.287Z,-4.89
2022-12-18T21:36:30.158Z,-4.88
2022-12-18T21:38:57.045Z,-4.86
2022-12-18T21:41:43.891Z,-4.88
2022-12-18T21:44:13.336Z,-4.84
2022-12-18T21:46:48.859Z,-4.78
2022-12-18T21:49:22.423Z,-4.87
2022-12-18T21:51:51.319Z,-4.92
2022-12-18T21:54:19.317Z,-4.85
2022-12-18T21:56:53.401Z,-4.73
2022-12-18T21:59:28.709Z,-4.73
2022-12-18T22:01:57.906Z,-4.71
2022-12-18T22:04:25.329Z,-4.69
2022-12-18T22:06:52.616Z,-4.62
2022-12-18T22:09:21.578Z,-4.61
2022-12-18T22:11:49.222Z,-4.62
2022-12-18T22:14:16.700Z,-4.68
2022-12-18T22:16:43.551Z,-4.74
2022-12-18T22:19:11.715Z,-4.70
2022-12-18T22:21:41.046Z,-4.67
2022-12-18T22:24:12.451Z,-4.60
2022-12-18T22:26:40.326Z,-4.44
2022-12-18T22:29:26.721Z,-4.51
2022-12-18T22:31:53.330Z,-4.65
2022-12-18T22:34:22.970Z,-4.57
2022-12-18T22:36:50.791Z,-4.53
2022-12-18T22:39:23.230Z,-4.46
2022-12-18T22:41:51.233Z,-4.52
2022-12-18T22:44:18.302Z,-4.38
2022-12-18T22:46:50.078Z,-4.43
2022-12-18T22:49:32.505Z,-4.39
2022-12-18T22:52:01.611Z,-4.42
2022-12-18T22:54:28.220Z,-4.28
2022-12-18T22:56:55.575Z,-4.28
2022-12-18T22:59:23.312Z,-4.26
2022-12-18T23:01:54.541Z,-4.22
2022-12-18T23:04:36.219Z,-4.28
2022-12-18T23:07:05.209Z,-4.29
2022-12-18T23:09:32.744Z,-4.15
2022-12-18T23:11:59.956Z,-4.14
2022-12-18T23:14:27.837Z,-3.98
2022-12-18T23:16:54.783Z,-3.98
2022-12-18T23:19:23.448Z,-3.95
2022-12-18T23:21:51.451Z,-4.02
2022-12-18T23:24:18.426Z,-4.05
2022-12-18T23:26:45.020Z,-4.13
2022-12-18T23:29:11.693Z,-3.99
2022-12-18T23:31:39.475Z,-4.07
2022-12-18T23:34:07.154Z,-4.15
2022-12-18T23:36:46.548Z,-4.05
2022-12-18T23:39:27.024Z,-3.99
2022-12-18T23:41:56.631Z,-3.86
2022-12-18T23:44:23.431Z,-3.84
2022-12-18T23:46:50.267Z,-3.84
2022-12-18T23:49:17.040Z,-3.82
2022-12-18T23:51:43.721Z,-3.73
2022-12-18T23:54:10.615Z,-3.71
2022-12-18T23:56:37.642Z,-3.77
2022-12-18T23:59:04.660Z,-3.79
